Time;durP1;ratioP1;P1;durP2;ratioP2;P2;SDS_P1;SDS_P2;PMS_P1;PMS_P2;Temp;Humidity;BMP_temperature;BMP_pressure;BME280_temperature;BME280_humidity;BME280_pressure;Samples;Min_cycle;Max_cycle;Signal;HPM_P1;HPM_P2
2022/05/27 00:00:20;;;;;;;42.88;10.98;;;15.60;99.90;;;;;;5052861;28;20038;-70
2022/05/27 00:02:47;;;;;;;39.30;9.65;;;15.70;99.90;;;;;;5053179;28;20473;-70
2022/05/27 00:05:14;;;;;;;39.33;10.75;;;15.80;99.90;;;;;;5052746;28;20170;-70
2022/05/27 00:07:39;;;;;;;41.88;9.80;;;15.90;99.90;;;;;;5052777;28;20619;-70
2022/05/27 00:10:06;;;;;;;35.63;9.95;;;15.80;99.90;;;;;;5034816;28;20127;-70
2022/05/27 00:12:32;;;;;;;43.15;9.80;;;15.70;99.90;;;;;;5053055;28;20187;-70
2022/05/27 00:14:58;;;;;;;33.70;8.98;;;15.80;99.90;;;;;;5052865;28;20523;-70
2022/05/27 00:17:23;;;;;;;28.20;7.60;;;15.70;99.90;;;;;;5056275;28;20124;-70
2022/05/27 00:19:49;;;;;;;27.80;7.40;;;15.60;99.90;;;;;;5038742;28;20075;-70
2022/05/27 00:22:15;;;;;;;23.90;7.40;;;15.60;99.90;;;;;;5056211;28;20052;-70
2022/05/27 00:24:41;;;;;;;21.17;6.35;;;15.50;99.90;;;;;;5056470;28;20045;-71
2022/05/27 00:27:08;;;;;;;35.55;6.45;;;15.60;99.90;;;;;;5056376;28;20048;-70
2022/05/27 00:29:35;;;;;;;25.33;5.90;;;15.40;99.90;;;;;;5055857;28;20049;-70
2022/05/27 00:32:01;;;;;;;22.02;5.78;;;15.30;99.90;;;;;;5056451;28;20482;-70
2022/05/27 00:34:27;;;;;;;24.65;5.28;;;15.30;99.90;;;;;;5055736;28;20084;-70
2022/05/27 00:36:53;;;;;;;28.05;5.30;;;15.30;99.90;;;;;;5038340;28;20088;-70
2022/05/27 00:39:19;;;;;;;21.77;5.03;;;15.20;99.90;;;;;;5055929;28;20075;-70
2022/05/27 00:41:44;;;;;;;27.10;4.78;;;15.20;99.90;;;;;;5056121;28;20047;-70
2022/05/27 00:44:10;;;;;;;24.17;4.75;;;15.20;99.90;;;;;;5055937;28;20544;-70
2022/05/27 00:46:39;;;;;;;21.08;5.13;;;15.30;99.90;;;;;;5055858;28;20428;-70
2022/05/27 00:49:23;;;;;;;20.42;4.38;;;15.30;99.90;;;;;;5055512;28;20053;-70
2022/05/27 00:52:01;;;;;;;17.92;4.00;;;15.30;99.90;;;;;;5055764;28;20524;-70
2022/05/27 00:54:27;;;;;;;20.98;4.47;;;15.20;99.90;;;;;;5056184;28;20095;-70
2022/05/27 00:57:10;;;;;;;21.27;4.20;;;15.20;99.90;;;;;;5038147;28;20394;-70
2022/05/27 00:59:58;;;;;;;25.10;4.82;;;15.20;99.90;;;;;;5054966;28;20087;-70
2022/05/27 01:02:24;;;;;;;24.50;4.57;;;15.10;99.90;;;;;;5038172;28;20052;-70
2022/05/27 01:04:51;;;;;;;23.50;3.90;;;15.10;99.90;;;;;;5055582;28;20091;-70
2022/05/27 01:07:17;;;;;;;22.27;4.20;;;15.10;99.90;;;;;;5055664;28;20102;-70
2022/05/27 01:09:47;;;;;;;22.52;4.07;;;15.00;99.90;;;;;;5055532;28;20549;-70
2022/05/27 01:12:51;;;;;;;23.75;4.53;;;15.10;99.90;;;;;;5055311;28;20055;-70
2022/05/27 01:15:32;;;;;;;20.05;4.45;;;15.00;99.90;;;;;;5055352;28;20048;-70
2022/05/27 01:18:04;;;;;;;22.48;4.32;;;15.00;99.90;;;;;;5055412;28;20084;-70
2022/05/27 01:20:50;;;;;;;24.77;4.38;;;15.00;99.90;;;;;;5055201;28;20037;-70
2022/05/27 01:23:49;;;;;;;24.83;4.18;;;14.90;99.90;;;;;;5055722;28;20445;-70
2022/05/27 01:26:44;;;;;;;22.25;4.10;;;14.90;99.90;;;;;;5055078;28;20060;-70
2022/05/27 01:29:18;;;;;;;26.38;4.50;;;14.80;99.90;;;;;;5054728;28;20083;-70
2022/05/27 01:31:48;;;;;;;18.13;3.92;;;14.70;99.90;;;;;;5055088;28;20048;-70
2022/05/27 01:34:18;;;;;;;26.00;3.80;;;14.60;99.90;;;;;;5054656;28;20053;-70
2022/05/27 01:37:07;;;;;;;20.30;4.07;;;14.70;99.90;;;;;;5055185;28;20057;-70
2022/05/27 01:39:51;;;;;;;21.48;3.90;;;14.80;99.90;;;;;;5055074;28;20048;-70
2022/05/27 01:43:05;;;;;;;19.40;3.42;;;14.80;99.90;;;;;;5055375;28;20193;-70
2022/05/27 01:45:47;;;;;;;30.20;4.43;;;14.80;99.90;;;;;;5037000;28;20053;-71
2022/05/27 01:48:36;;;;;;;21.52;3.75;;;14.80;99.90;;;;;;5054798;28;20044;-70
2022/05/27 01:51:18;;;;;;;21.42;3.08;;;14.80;99.90;;;;;;5054640;28;20037;-70
2022/05/27 01:53:59;;;;;;;23.20;3.63;;;14.70;99.90;;;;;;5054588;28;20139;-71
2022/05/27 01:56:31;;;;;;;25.60;3.78;;;14.70;99.90;;;;;;5054599;28;20080;-70
2022/05/27 01:59:06;;;;;;;24.52;3.90;;;14.60;99.90;;;;;;5054749;28;20060;-70
2022/05/27 02:01:37;;;;;;;23.20;4.63;;;14.60;99.90;;;;;;5054653;28;20102;-70
2022/05/27 02:04:16;;;;;;;20.52;4.03;;;14.60;99.90;;;;;;5036859;28;20045;-71
2022/05/27 02:07:00;;;;;;;15.23;2.92;;;14.60;99.90;;;;;;5054673;28;20432;-70
2022/05/27 02:09:40;;;;;;;14.90;3.13;;;14.60;99.90;;;;;;5054422;28;20059;-71
2022/05/27 02:12:12;;;;;;;22.02;3.35;;;14.70;99.90;;;;;;5054240;28;20053;-71
2022/05/27 02:14:40;;;;;;;24.67;3.95;;;14.70;99.90;;;;;;5054333;28;20037;-71
2022/05/27 02:17:10;;;;;;;19.13;3.78;;;14.70;99.90;;;;;;5054233;28;20399;-71
2022/05/27 02:19:43;;;;;;;26.45;3.58;;;14.80;99.90;;;;;;5054418;28;20051;-70
2022/05/27 02:22:12;;;;;;;17.00;3.10;;;14.70;99.90;;;;;;5054240;28;20045;-70
2022/05/27 02:25:13;;;;;;;22.60;3.13;;;14.70;99.90;;;;;;5053954;28;20107;-70
2022/05/27 02:27:51;;;;;;;17.33;3.10;;;14.70;99.90;;;;;;5036734;28;20068;-70
2022/05/27 02:30:21;;;;;;;21.23;3.10;;;14.60;99.90;;;;;;5035660;28;20045;-71
2022/05/27 02:35:55;;;;;;;19.88;2.92;;;14.50;99.90;;;;;;4999179;28;20062;-71
2022/05/27 02:38:21;;;;;;;11.25;2.50;;;14.50;99.90;;;;;;5053349;28;20057;-71
2022/05/27 02:41:07;;;;;;;10.95;2.55;;;14.50;99.90;;;;;;5053563;28;20118;-70
2022/05/27 02:43:55;;;;;;;17.37;3.50;;;14.60;99.90;;;;;;5053899;28;20076;-70
2022/05/27 02:46:26;;;;;;;17.67;2.80;;;14.60;99.90;;;;;;5043133;28;20057;-70
2022/05/27 02:48:59;;;;;;;11.65;2.45;;;14.60;99.90;;;;;;5036009;28;20076;-70
2022/05/27 02:51:36;;;;;;;15.77;3.75;;;14.40;99.90;;;;;;5053635;28;20482;-70
2022/05/27 02:54:16;;;;;;;14.95;3.10;;;14.40;99.90;;;;;;5036123;28;20045;-70
2022/05/27 02:56:58;;;;;;;12.18;2.53;;;14.40;99.90;;;;;;5053601;28;20131;-70
2022/05/27 02:59:25;;;;;;;13.45;2.08;;;14.40;99.90;;;;;;5053191;28;20049;-70
2022/05/27 03:01:51;;;;;;;8.07;2.53;;;14.40;99.90;;;;;;5053465;28;20056;-72
2022/05/27 03:04:18;;;;;;;12.98;2.45;;;14.30;99.90;;;;;;5053215;28;20037;-70
2022/05/27 03:07:07;;;;;;;9.52;2.15;;;14.30;99.90;;;;;;5053030;28;20567;-71
2022/05/27 03:09:54;;;;;;;14.60;2.38;;;14.20;99.90;;;;;;5035830;28;20490;-70
2022/05/27 03:12:23;;;;;;;10.90;2.08;;;14.20;99.90;;;;;;5053543;28;20049;-70
2022/05/27 03:14:51;;;;;;;11.00;1.80;;;14.10;99.90;;;;;;5053061;28;20494;-70
2022/05/27 03:17:42;;;;;;;11.50;2.50;;;14.00;99.90;;;;;;5035572;28;20049;-70
2022/05/27 03:20:39;;;;;;;10.48;1.92;;;14.00;99.90;;;;;;5035969;28;20045;-71
2022/05/27 03:23:19;;;;;;;6.80;1.73;;;14.00;99.90;;;;;;5035600;28;20059;-70
2022/05/27 03:25:58;;;;;;;16.02;2.42;;;13.90;99.90;;;;;;5053326;28;20053;-71
2022/05/27 03:28:27;;;;;;;14.10;2.38;;;13.90;99.90;;;;;;5053188;28;20052;-70
2022/05/27 03:31:11;;;;;;;13.48;2.05;;;13.90;99.90;;;;;;5035098;28;20496;-71
2022/05/27 03:34:07;;;;;;;11.13;1.73;;;13.80;99.90;;;;;;5053248;28;20045;-70
2022/05/27 03:36:36;;;;;;;14.77;2.43;;;13.80;99.90;;;;;;5053266;28;20052;-70
2022/05/27 03:39:22;;;;;;;12.77;1.95;;;13.80;99.90;;;;;;5053205;28;20049;-70
2022/05/27 03:41:58;;;;;;;9.45;2.20;;;13.70;99.90;;;;;;5053086;28;20049;-70
2022/05/27 03:44:27;;;;;;;13.73;2.53;;;13.70;99.90;;;;;;5052849;28;20045;-70
2022/05/27 03:46:54;;;;;;;12.60;1.90;;;13.70;99.90;;;;;;5052774;28;20052;-70
2022/05/27 03:49:20;;;;;;;9.82;2.00;;;13.80;99.90;;;;;;5054010;28;20060;-70
2022/05/27 03:52:00;;;;;;;14.07;1.98;;;13.70;99.90;;;;;;5057038;28;20447;-70
2022/05/27 03:54:26;;;;;;;8.20;2.05;;;13.80;99.90;;;;;;5056846;28;20045;-70
2022/05/27 03:56:52;;;;;;;14.88;2.47;;;13.90;99.90;;;;;;5056544;28;20041;-71
2022/05/27 03:59:19;;;;;;;17.33;2.50;;;13.90;99.90;;;;;;5056704;28;20048;-71
2022/05/27 04:01:48;;;;;;;14.25;2.65;;;13.80;99.90;;;;;;5057210;28;20096;-70
2022/05/27 04:04:17;;;;;;;15.95;2.70;;;13.80;99.90;;;;;;5056597;28;20049;-70
2022/05/27 04:06:43;;;;;;;19.13;3.20;;;13.90;99.90;;;;;;5056653;28;20040;-70
2022/05/27 04:09:09;;;;;;;10.00;2.70;;;13.90;99.90;;;;;;5056685;28;20051;-70
2022/05/27 04:11:35;;;;;;;10.52;2.35;;;13.90;99.90;;;;;;5056447;28;20128;-70
2022/05/27 04:14:01;;;;;;;13.23;2.20;;;13.90;99.90;;;;;;5056682;28;20136;-70
2022/05/27 04:16:27;;;;;;;14.50;2.78;;;13.90;99.90;;;;;;5056872;28;20192;-70
2022/05/27 04:18:53;;;;;;;12.50;2.40;;;14.00;99.90;;;;;;5039044;28;20440;-71
2022/05/27 04:21:19;;;;;;;18.55;2.88;;;14.10;99.90;;;;;;5056309;28;20045;-70
2022/05/27 04:23:45;;;;;;;15.35;2.75;;;14.10;99.90;;;;;;5056378;28;20110;-70
2022/05/27 04:26:11;;;;;;;14.55;2.70;;;14.10;99.90;;;;;;5056403;28;20123;-70
2022/05/27 04:28:37;;;;;;;16.27;2.80;;;14.20;99.90;;;;;;5056391;28;20049;-70
2022/05/27 04:31:03;;;;;;;9.88;2.08;;;14.10;99.90;;;;;;5063894;28;20173;-70
2022/05/27 04:33:29;;;;;;;16.60;3.10;;;14.00;99.90;;;;;;5066318;28;20082;-70
2022/05/27 04:35:57;;;;;;;17.23;2.92;;;13.90;99.90;;;;;;5064160;28;20053;-70
2022/05/27 04:38:23;;;;;;;12.52;2.95;;;13.90;99.90;;;;;;5063947;28;20513;-70
2022/05/27 04:40:49;;;;;;;15.18;2.85;;;13.80;99.90;;;;;;5056121;28;20041;-70
2022/05/27 04:43:15;;;;;;;16.13;2.88;;;13.70;99.90;;;;;;5056064;28;20041;-70
2022/05/27 04:45:42;;;;;;;21.48;2.92;;;13.80;99.90;;;;;;5038324;28;20106;-70
2022/05/27 04:48:09;;;;;;;20.50;3.10;;;13.70;99.90;;;;;;5056241;28;20072;-70
2022/05/27 04:50:35;;;;;;;21.23;3.08;;;13.70;99.90;;;;;;5055845;28;20473;-70
2022/05/27 04:53:02;;;;;;;19.85;3.58;;;13.80;99.90;;;;;;5055797;28;20055;-70
2022/05/27 04:55:30;;;;;;;17.40;4.00;;;13.80;99.90;;;;;;5056056;28;20450;-70
2022/05/27 04:57:56;;;;;;;18.92;2.90;;;13.90;99.90;;;;;;5056397;28;20115;-70
2022/05/27 05:00:34;;;;;;;19.23;2.88;;;14.00;99.90;;;;;;5055456;28;20041;-70
2022/05/27 05:03:00;;;;;;;19.23;2.90;;;14.10;99.90;;;;;;5037850;28;20474;-70
2022/05/27 05:05:28;;;;;;;20.95;2.70;;;13.90;99.90;;;;;;5055428;28;20057;-70
2022/05/27 05:08:08;;;;;;;15.48;3.13;;;13.80;99.90;;;;;;5038069;28;20448;-70
2022/05/27 05:10:35;;;;;;;16.52;3.15;;;13.80;99.90;;;;;;5055498;28;20095;-70
2022/05/27 05:13:02;;;;;;;14.85;2.40;;;13.80;99.90;;;;;;5055490;28;20047;-70
2022/05/27 05:15:28;;;;;;;17.15;3.08;;;13.90;99.90;;;;;;5037813;28;20144;-70
2022/05/27 05:17:54;;;;;;;18.77;3.15;;;13.90;99.90;;;;;;5055314;28;20044;-70
2022/05/27 05:20:24;;;;;;;24.23;3.00;;;13.90;99.90;;;;;;5055225;28;20041;-71
2022/05/27 05:22:50;;;;;;;20.42;2.38;;;14.10;99.90;;;;;;5055396;28;20041;-70
2022/05/27 05:25:16;;;;;;;16.73;2.17;;;14.20;99.90;;;;;;5037776;28;20051;-70
2022/05/27 05:27:42;;;;;;;15.13;2.20;;;14.20;99.90;;;;;;5055146;28;20493;-70
2022/05/27 05:30:11;;;;;;;15.05;2.60;;;14.20;99.90;;;;;;5054604;28;20045;-70
2022/05/27 05:32:37;;;;;;;18.55;2.83;;;14.20;99.90;;;;;;5037625;28;20049;-70
2022/05/27 05:35:04;;;;;;;12.38;1.85;;;14.20;99.90;;;;;;5054863;28;20060;-70
2022/05/27 05:37:29;;;;;;;16.90;2.20;;;14.10;99.90;;;;;;5055124;28;20049;-70
2022/05/27 05:39:55;;;;;;;13.20;2.22;;;14.00;99.90;;;;;;5055198;28;20140;-70
2022/05/27 05:42:21;;;;;;;15.43;2.45;;;13.80;99.90;;;;;;5054938;28;20048;-70
2022/05/27 05:44:46;;;;;;;12.73;3.03;;;13.80;99.90;;;;;;5054655;28;20057;-70
2022/05/27 05:47:13;;;;;;;13.63;2.30;;;13.80;99.90;;;;;;5054716;28;20055;-70
2022/05/27 05:49:38;;;;;;;14.27;2.40;;;13.80;99.90;;;;;;5054840;28;20082;-70
2022/05/27 05:52:04;;;;;;;22.30;2.40;;;13.80;99.90;;;;;;5054643;28;20052;-70
2022/05/27 05:54:31;;;;;;;14.15;2.28;;;13.80;99.90;;;;;;5054833;28;20045;-70
2022/05/27 05:57:04;;;;;;;18.08;2.47;;;13.90;99.90;;;;;;5054626;28;20136;-70
2022/05/27 05:59:32;;;;;;;12.57;2.40;;;14.00;99.90;;;;;;5054178;28;20056;-70
2022/05/27 06:01:58;;;;;;;18.60;2.45;;;13.90;99.90;;;;;;5054325;28;20405;-70
2022/05/27 06:04:24;;;;;;;17.58;2.58;;;14.10;99.90;;;;;;5054665;28;20127;-70
2022/05/27 06:06:50;;;;;;;21.05;2.47;;;14.10;99.90;;;;;;5054369;28;20076;-70
2022/05/27 06:09:16;;;;;;;17.48;3.25;;;14.20;99.90;;;;;;5036885;28;20048;-70
2022/05/27 06:11:42;;;;;;;15.60;2.58;;;14.20;99.90;;;;;;5036406;28;20083;-70
2022/05/27 06:14:07;;;;;;;20.65;2.97;;;14.20;99.90;;;;;;5053317;28;20045;-70
2022/05/27 06:16:33;;;;;;;15.80;2.53;;;14.10;99.90;;;;;;5036289;28;20044;-71
2022/05/27 06:18:59;;;;;;;20.45;2.75;;;14.30;99.90;;;;;;5054187;28;20076;-70
2022/05/27 06:21:26;;;;;;;14.52;2.58;;;14.30;99.90;;;;;;5036500;28;20053;-70
2022/05/27 06:23:52;;;;;;;12.00;2.13;;;14.40;99.90;;;;;;5053957;28;20049;-70
2022/05/27 06:26:18;;;;;;;19.55;3.00;;;14.50;99.90;;;;;;5054068;28;20127;-70
2022/05/27 06:34:25;;;;;;;13.48;2.47;;;14.60;99.90;;;;;;5053823;28;20064;-70
2022/05/27 06:37:02;;;;;;;19.17;3.15;;;14.50;99.90;;;;;;5036446;28;20060;-70
2022/05/27 06:39:28;;;;;;;12.07;2.40;;;14.40;99.90;;;;;;5053675;28;20056;-70
2022/05/27 06:41:54;;;;;;;17.60;2.67;;;14.30;99.90;;;;;;5053604;28;20047;-70
2022/05/27 06:44:21;;;;;;;13.55;2.38;;;14.40;99.90;;;;;;5035881;28;20567;-70
2022/05/27 06:46:50;;;;;;;13.65;1.98;;;14.50;99.90;;;;;;5053718;28;20048;-70
2022/05/27 06:49:17;;;;;;;12.73;2.42;;;14.70;99.90;;;;;;5053498;28;20052;-70
2022/05/27 06:51:43;;;;;;;13.85;2.42;;;14.60;99.90;;;;;;5053731;28;20040;-70
2022/05/27 06:54:09;;;;;;;16.88;2.65;;;14.60;99.90;;;;;;5053292;28;20056;-70
2022/05/27 06:56:37;;;;;;;19.50;2.35;;;14.60;99.90;;;;;;5036241;28;20131;-71
2022/05/27 06:59:05;;;;;;;14.18;2.00;;;14.60;99.90;;;;;;5053434;28;20045;-70
2022/05/27 07:01:30;;;;;;;14.38;2.58;;;14.40;99.90;;;;;;5053076;28;20053;-70
2022/05/27 07:03:57;;;;;;;10.10;2.33;;;14.60;99.90;;;;;;5035726;28;20051;-70
2022/05/27 07:06:27;;;;;;;19.77;2.13;;;14.70;99.90;;;;;;5053343;28;20067;-70
2022/05/27 07:08:52;;;;;;;17.83;2.80;;;14.80;99.90;;;;;;5056104;28;20041;-70
2022/05/27 07:11:18;;;;;;;22.75;2.95;;;14.90;99.90;;;;;;5043504;28;20135;-70
2022/05/27 07:13:44;;;;;;;16.00;2.10;;;14.90;99.90;;;;;;5063551;28;20090;-71
2022/05/27 07:16:10;;;;;;;13.80;2.50;;;14.80;99.90;;;;;;5055462;28;20052;-71
2022/05/27 07:18:35;;;;;;;21.38;2.50;;;14.70;99.90;;;;;;5055738;28;20040;-71
2022/05/27 07:21:04;;;;;;;11.80;2.10;;;14.70;99.90;;;;;;5055484;28;20508;-70
2022/05/27 07:23:30;;;;;;;14.65;2.33;;;14.80;99.90;;;;;;5073602;28;20051;-72
2022/05/27 07:25:55;;;;;;;20.33;3.33;;;14.90;99.90;;;;;;5079182;28;20048;-70
2022/05/27 07:28:21;;;;;;;14.88;2.45;;;15.00;99.90;;;;;;5079770;28;20048;-70
2022/05/27 07:30:47;;;;;;;16.80;2.25;;;15.00;99.90;;;;;;5079759;28;20045;-69
2022/05/27 07:33:13;;;;;;;14.18;2.47;;;15.20;99.90;;;;;;5079750;28;20408;-69
2022/05/27 07:35:39;;;;;;;14.77;2.83;;;15.30;99.90;;;;;;5080223;28;20056;-70
2022/05/27 07:38:04;;;;;;;15.25;2.83;;;15.20;99.90;;;;;;5079480;28;20083;-70
2022/05/27 07:40:30;;;;;;;17.83;2.97;;;15.00;99.90;;;;;;5079792;28;20098;-69
2022/05/27 07:42:56;;;;;;;13.52;2.30;;;15.10;99.90;;;;;;5079950;28;20131;-70
2022/05/27 07:45:26;;;;;;;20.13;2.75;;;15.00;99.90;;;;;;5079675;28;20098;-69
2022/05/27 07:47:53;;;;;;;14.13;2.30;;;14.90;99.90;;;;;;5079838;28;20050;-70
2022/05/27 07:50:20;;;;;;;16.85;2.25;;;15.00;99.90;;;;;;5079565;28;20048;-75
2022/05/27 07:52:46;;;;;;;17.33;3.28;;;15.10;99.90;;;;;;5080545;28;20074;-72
2022/05/27 07:55:13;;;;;;;19.02;2.58;;;15.10;99.90;;;;;;5083924;28;20056;-73
2022/05/27 07:57:46;;;;;;;21.70;2.80;;;15.20;99.90;;;;;;5080249;28;20441;-72
2022/05/27 08:00:18;;;;;;;19.05;3.15;;;15.40;99.90;;;;;;5079302;28;20070;-71
2022/05/27 08:02:44;;;;;;;10.50;2.38;;;15.50;99.90;;;;;;5079532;28;20114;-72
2022/05/27 08:05:16;;;;;;;14.77;2.72;;;15.70;99.90;;;;;;5079623;28;20044;-71
2022/05/27 08:07:42;;;;;;;12.15;2.03;;;15.80;99.80;;;;;;5079509;28;20037;-71
2022/05/27 08:10:08;;;;;;;15.63;2.38;;;15.50;99.70;;;;;;5079629;28;20366;-72
2022/05/27 08:12:35;;;;;;;15.88;2.65;;;15.50;99.60;;;;;;5079497;28;20526;-71
2022/05/27 08:15:01;;;;;;;15.52;2.42;;;15.50;99.90;;;;;;5079376;28;20048;-72
2022/05/27 08:17:26;;;;;;;12.75;2.20;;;15.80;99.90;;;;;;5079113;28;20047;-72
2022/05/27 08:19:52;;;;;;;16.77;3.08;;;15.90;99.90;;;;;;5079456;28;20041;-71
2022/05/27 08:22:19;;;;;;;16.48;3.13;;;15.80;99.90;;;;;;5061675;28;20040;-71
2022/05/27 08:24:44;;;;;;;17.95;2.67;;;15.60;99.90;;;;;;5079877;28;20049;-71
2022/05/27 08:27:11;;;;;;;13.77;2.78;;;15.70;99.90;;;;;;5079573;28;20059;-71
2022/05/27 08:29:37;;;;;;;16.05;2.45;;;15.70;99.90;;;;;;5078866;28;20037;-72
2022/05/27 08:32:04;;;;;;;16.75;2.30;;;15.70;99.90;;;;;;5079503;28;20496;-72
2022/05/27 08:40:01;;;;;;;14.00;2.00;;;15.40;99.90;;;;;;5076283;28;20052;-72
2022/05/27 08:42:42;;;;;;;16.88;2.58;;;15.40;99.90;;;;;;5075746;28;20048;-70
2022/05/27 08:45:32;;;;;;;14.77;1.77;;;15.60;99.90;;;;;;5076258;28;20048;-72
2022/05/27 08:48:04;;;;;;;10.75;1.70;;;15.80;99.80;;;;;;5076085;28;20045;-72
2022/05/27 08:50:29;;;;;;;13.82;2.13;;;15.80;99.60;;;;;;5075913;28;20083;-72
2022/05/27 08:53:31;;;;;;;11.98;2.33;;;15.80;99.50;;;;;;5075632;28;20052;-72
2022/05/27 09:01:49;;;;;;;15.13;2.20;;;16.10;99.90;;;;;;5075221;28;20056;-70
2022/05/27 09:04:17;;;;;;;22.35;2.47;;;16.20;99.70;;;;;;5075704;28;20048;-70
2022/05/27 09:06:50;;;;;;;13.90;2.10;;;16.50;99.90;;;;;;5075703;28;20051;-70
2022/05/27 09:09:22;;;;;;;15.25;2.53;;;16.50;99.70;;;;;;5075566;28;20074;-71
2022/05/27 09:11:48;;;;;;;22.88;2.85;;;16.60;99.40;;;;;;5075748;28;20047;-71
2022/05/27 09:14:22;;;;;;;18.08;2.65;;;16.50;99.40;;;;;;5075372;28;20048;-71
2022/05/27 09:17:01;;;;;;;17.25;2.65;;;16.40;99.40;;;;;;5075498;28;20051;-71
2022/05/27 09:19:41;;;;;;;12.40;1.80;;;16.10;99.90;;;;;;5057641;28;20101;-70
2022/05/27 09:22:16;;;;;;;15.73;2.38;;;16.20;99.50;;;;;;5057699;28;20123;-70
2022/05/27 09:25:07;;;;;;;12.32;2.25;;;16.40;99.70;;;;;;5075719;28;20048;-71
2022/05/27 09:28:05;;;;;;;17.25;2.20;;;16.40;99.80;;;;;;5057499;28;20052;-71
2022/05/27 09:30:33;;;;;;;12.70;2.28;;;16.20;99.40;;;;;;5074576;28;20052;-70
2022/05/27 09:33:08;;;;;;;17.65;2.65;;;16.20;99.60;;;;;;5075255;28;20443;-70
2022/05/27 09:35:43;;;;;;;18.23;2.60;;;16.30;99.30;;;;;;5075084;28;20556;-69
2022/05/27 09:38:34;;;;;;;16.10;2.67;;;16.30;99.60;;;;;;5075313;28;20105;-70
2022/05/27 09:41:38;;;;;;;15.40;3.03;;;16.00;99.50;;;;;;5074552;28;20080;-70
2022/05/27 09:44:26;;;;;;;18.05;2.40;;;15.60;99.70;;;;;;5074930;28;20052;-69
2022/05/27 09:46:52;;;;;;;11.35;2.17;;;15.70;99.80;;;;;;5074834;28;20482;-69
2022/05/27 09:49:17;;;;;;;14.48;1.92;;;15.80;99.90;;;;;;5039867;28;20404;-71
2022/05/27 09:51:43;;;;;;;12.43;2.33;;;15.80;99.90;;;;;;5074962;28;20045;-72
2022/05/27 09:54:27;;;;;;;14.73;2.17;;;15.90;99.90;;;;;;5057175;28;20048;-71
2022/05/27 09:57:15;;;;;;;23.50;3.60;;;16.00;99.80;;;;;;5075024;28;20071;-74
2022/05/27 09:59:42;;;;;;;15.77;2.83;;;15.90;99.90;;;;;;5066615;28;20040;-70
2022/05/27 10:02:30;;;;;;;12.57;1.95;;;16.10;99.90;;;;;;5039627;28;20055;-71
2022/05/27 10:05:05;;;;;;;11.98;2.25;;;16.30;99.90;;;;;;5051004;28;20053;-76
2022/05/27 10:07:52;;;;;;;13.00;1.92;;;16.00;99.90;;;;;;5052774;28;20052;-73
2022/05/27 10:10:30;;;;;;;13.23;2.15;;;16.00;99.80;;;;;;5053404;28;20049;-70
2022/05/27 10:12:58;;;;;;;12.38;1.83;;;16.20;99.70;;;;;;5054622;28;20438;-70
2022/05/27 10:15:35;;;;;;;10.48;2.47;;;16.50;99.40;;;;;;5054072;28;20490;-70
2022/05/27 10:18:17;;;;;;;13.48;2.40;;;16.40;99.80;;;;;;5054318;28;20485;-70
2022/05/27 10:20:46;;;;;;;14.80;2.10;;;16.30;99.40;;;;;;5053820;28;20041;-70
2022/05/27 10:23:25;;;;;;;14.65;2.00;;;16.10;99.70;;;;;;5036567;28;20049;-70
2022/05/27 10:25:51;;;;;;;21.27;3.00;;;16.20;99.90;;;;;;5054378;28;20410;-70
2022/05/27 10:28:29;;;;;;;16.58;2.55;;;16.20;99.80;;;;;;5053898;28;20560;-70
2022/05/27 10:31:01;;;;;;;16.90;2.40;;;16.30;99.90;;;;;;5053433;28;20482;-71
2022/05/27 10:33:42;;;;;;;15.10;2.28;;;16.50;99.90;;;;;;5053860;28;20409;-70
2022/05/27 10:36:31;;;;;;;14.48;2.05;;;16.60;99.90;;;;;;5053730;28;20529;-70
2022/05/27 10:39:15;;;;;;;15.30;2.17;;;16.60;99.90;;;;;;5053998;28;20088;-70
2022/05/27 10:42:11;;;;;;;16.08;3.22;;;16.40;99.80;;;;;;5053865;28;20037;-69
2022/05/27 10:45:03;;;;;;;14.98;2.20;;;16.50;99.90;;;;;;5053699;28;20118;-70
2022/05/27 10:47:53;;;;;;;12.52;2.00;;;16.60;99.90;;;;;;5033824;28;20049;-80
2022/05/27 10:50:42;;;;;;;13.35;2.85;;;16.50;99.60;;;;;;5061143;28;20048;-72
2022/05/27 10:53:17;;;;;;;16.70;2.75;;;16.60;99.90;;;;;;5069103;28;20049;-71
2022/05/27 10:55:48;;;;;;;12.55;2.10;;;16.70;99.70;;;;;;5063923;28;20052;-70
2022/05/27 11:04:45;;;;;;;13.20;2.55;;;16.80;99.90;;;;;;5051621;28;20127;-70
2022/05/27 11:07:29;;;;;;;15.73;1.95;;;16.60;99.90;;;;;;5053742;28;20091;-66
2022/05/27 11:10:19;;;;;;;13.88;2.22;;;16.10;99.90;;;;;;5053373;28;20528;-71
2022/05/27 11:16:05;;;;;;;16.88;3.15;;;15.70;99.90;;;;;;5072490;28;20055;-71
2022/05/27 11:19:03;;;;;;;15.57;2.50;;;15.60;99.90;;;;;;4981047;28;20399;-68
2022/05/27 11:21:38;;;;;;;13.15;2.47;;;16.10;99.90;;;;;;5035433;28;20041;-73
2022/05/27 11:24:12;;;;;;;15.30;2.90;;;16.60;99.90;;;;;;5035463;28;20053;-68
2022/05/27 11:27:03;;;;;;;13.35;2.28;;;16.70;99.90;;;;;;5035230;28;20497;-68
2022/05/27 11:30:01;;;;;;;14.23;2.67;;;16.40;99.80;;;;;;5052913;28;20099;-68
2022/05/27 11:32:45;;;;;;;21.30;2.83;;;16.20;99.90;;;;;;5071308;28;20071;-80
2022/05/27 11:35:19;;;;;;;20.13;2.50;;;16.00;99.90;;;;;;5053048;28;20051;-68
2022/05/27 11:37:51;;;;;;;15.15;2.35;;;16.30;99.90;;;;;;5073274;28;20132;-70
2022/05/27 11:40:31;;;;;;;15.50;2.50;;;16.30;99.70;;;;;;5073313;28;20044;-70
2022/05/27 11:43:18;;;;;;;18.23;2.42;;;16.20;99.90;;;;;;5073014;28;20049;-71
2022/05/27 11:46:10;;;;;;;12.68;2.33;;;16.70;99.90;;;;;;5073364;28;20067;-69
2022/05/27 11:48:46;;;;;;;18.23;2.67;;;16.60;99.80;;;;;;5073784;28;20491;-70
2022/05/27 11:51:24;;;;;;;12.93;2.60;;;16.50;99.50;;;;;;5072935;28;20044;-70
2022/05/27 11:53:59;;;;;;;13.55;2.65;;;16.00;99.60;;;;;;5072959;28;20052;-70
2022/05/27 11:56:36;;;;;;;14.10;2.30;;;15.80;99.90;;;;;;5042551;28;20469;-70
2022/05/27 11:59:10;;;;;;;19.13;3.13;;;16.30;99.90;;;;;;5072358;28;20082;-69
2022/05/27 12:01:41;;;;;;;15.35;2.75;;;16.40;99.90;;;;;;5065193;28;20442;-70
2022/05/27 12:04:28;;;;;;;14.27;2.20;;;16.20;99.90;;;;;;5052620;28;20049;-70
2022/05/27 12:07:27;;;;;;;17.77;2.60;;;16.30;99.90;;;;;;5052423;28;20056;-70
2022/05/27 12:09:58;;;;;;;16.10;2.50;;;16.80;99.90;;;;;;5035719;28;20052;-70
2022/05/27 12:12:54;;;;;;;19.63;2.33;;;16.70;99.80;;;;;;5036706;28;20417;-68
2022/05/27 12:15:29;;;;;;;19.95;2.92;;;16.70;99.90;;;;;;5049101;28;20057;-68
2022/05/27 12:17:57;;;;;;;14.98;2.38;;;16.60;99.90;;;;;;5056496;28;20429;-68
2022/05/27 12:20:31;;;;;;;13.05;2.25;;;16.60;99.90;;;;;;5056242;28;20048;-69
2022/05/27 12:23:00;;;;;;;13.15;2.17;;;16.50;99.90;;;;;;5056340;28;20071;-68
2022/05/27 12:25:32;;;;;;;15.18;2.28;;;16.50;99.90;;;;;;5056131;28;20049;-68
2022/05/27 12:28:01;;;;;;;11.45;1.85;;;16.70;99.90;;;;;;5056586;28;20131;-68
2022/05/27 12:30:39;;;;;;;13.15;1.92;;;16.80;99.90;;;;;;5055395;28;20052;-68
2022/05/27 12:33:06;;;;;;;14.15;2.03;;;16.50;99.90;;;;;;5055984;28;20564;-68
2022/05/27 12:35:31;;;;;;;14.02;1.75;;;16.80;99.90;;;;;;5055647;28;20053;-68
2022/05/27 12:38:05;;;;;;;18.65;2.75;;;17.10;99.90;;;;;;5055772;28;20129;-68
2022/05/27 12:40:32;;;;;;;12.02;2.35;;;17.00;99.80;;;;;;5038482;28;20107;-68
2022/05/27 12:43:24;;;;;;;13.63;2.05;;;17.00;99.90;;;;;;5055889;28;20053;-69
2022/05/27 12:46:02;;;;;;;14.23;2.08;;;16.80;99.90;;;;;;5058390;28;20040;-68
2022/05/27 12:48:40;;;;;;;12.13;2.00;;;16.60;99.90;;;;;;5075637;28;20044;-68
2022/05/27 12:51:16;;;;;;;17.60;2.17;;;16.70;99.90;;;;;;5043977;28;20051;-68
2022/05/27 12:53:48;;;;;;;15.48;2.40;;;16.60;99.90;;;;;;5055999;28;20049;-69
2022/05/27 13:02:18;;;;;;;14.43;2.42;;;16.30;99.80;;;;;;5055592;28;20140;-68
2022/05/27 13:04:49;;;;;;;19.02;2.45;;;16.50;99.90;;;;;;5055436;28;20499;-68
2022/05/27 13:07:21;;;;;;;22.90;3.05;;;16.40;99.90;;;;;;5055247;28;20044;-68
2022/05/27 13:09:48;;;;;;;15.90;2.63;;;16.20;99.90;;;;;;5022284;28;20132;-68
2022/05/27 13:12:53;;;;;;;14.55;2.00;;;15.90;99.90;;;;;;5055397;28;20076;-69
2022/05/27 13:15:44;;;;;;;14.88;2.38;;;15.60;99.90;;;;;;5054097;28;20087;-69
2022/05/27 13:18:25;;;;;;;17.35;2.65;;;15.70;99.90;;;;;;5038057;28;20397;-69
2022/05/27 13:20:53;;;;;;;12.52;1.73;;;15.50;99.90;;;;;;5055226;28;20041;-69
2022/05/27 13:23:23;;;;;;;16.95;2.10;;;15.40;99.90;;;;;;5036833;28;20563;-69
2022/05/27 13:26:15;;;;;;;12.63;2.33;;;15.60;99.90;;;;;;5055026;28;20393;-72
2022/05/27 13:28:52;;;;;;;14.07;2.65;;;15.80;99.90;;;;;;5054935;28;20595;-69
2022/05/27 13:31:39;;;;;;;10.02;1.98;;;15.90;99.90;;;;;;5036664;28;20115;-70
2022/05/27 13:34:15;;;;;;;17.02;2.53;;;16.00;99.90;;;;;;5055107;28;20131;-70
2022/05/27 13:37:00;;;;;;;17.73;2.67;;;15.90;99.90;;;;;;5036161;28;20056;-69
2022/05/27 13:39:54;;;;;;;11.90;2.45;;;16.20;99.90;;;;;;5053613;28;20045;-70
2022/05/27 13:42:34;;;;;;;10.25;2.38;;;16.10;99.90;;;;;;5055054;28;20044;-69
2022/05/27 13:45:08;;;;;;;14.85;2.00;;;16.00;99.90;;;;;;5053508;28;20051;-70